sensor_id;sensor_type;location;lat;lon;timestamp;P1;durP1;ratioP1;P2;durP2;ratioP2
62616;SDS011;62539;51.190;6.808;2024-01-07T00:01:29;2.72;;;2.20;;
62616;SDS011;62539;51.190;6.808;2024-01-07T00:03:54;5.00;;;2.35;;
62616;SDS011;62539;51.190;6.808;2024-01-07T00:06:20;2.35;;;2.15;;
62616;SDS011;62539;51.190;6.808;2024-01-07T00:08:45;2.75;;;2.20;;
62616;SDS011;62539;51.190;6.808;2024-01-07T00:11:12;2.40;;;2.20;;
62616;SDS011;62539;51.190;6.808;2024-01-07T00:13:37;2.72;;;2.15;;
62616;SDS011;62539;51.190;6.808;2024-01-07T00:16:03;2.60;;;2.35;;
62616;SDS011;62539;51.190;6.808;2024-01-07T00:18:29;4.30;;;2.40;;
62616;SDS011;62539;51.190;6.808;2024-01-07T00:20:57;3.03;;;2.22;;
62616;SDS011;62539;51.190;6.808;2024-01-07T00:23:23;3.67;;;2.22;;
62616;SDS011;62539;51.190;6.808;2024-01-07T00:25:49;2.75;;;2.30;;
62616;SDS011;62539;51.190;6.808;2024-01-07T00:28:14;2.45;;;2.10;;
62616;SDS011;62539;51.190;6.808;2024-01-07T00:30:40;2.63;;;2.20;;
62616;SDS011;62539;51.190;6.808;2024-01-07T00:33:05;1.95;;;1.80;;
62616;SDS011;62539;51.190;6.808;2024-01-07T00:35:31;2.33;;;2.10;;
62616;SDS011;62539;51.190;6.808;2024-01-07T00:37:56;2.67;;;2.33;;
62616;SDS011;62539;51.190;6.808;2024-01-07T00:40:24;2.30;;;2.08;;
62616;SDS011;62539;51.190;6.808;2024-01-07T00:42:51;3.42;;;2.30;;
62616;SDS011;62539;51.190;6.808;2024-01-07T00:45:17;2.20;;;1.95;;
62616;SDS011;62539;51.190;6.808;2024-01-07T00:47:43;2.58;;;2.03;;
62616;SDS011;62539;51.190;6.808;2024-01-07T00:50:09;3.97;;;2.40;;
62616;SDS011;62539;51.190;6.808;2024-01-07T00:52:34;1.80;;;1.70;;
62616;SDS011;62539;51.190;6.808;2024-01-07T00:55:07;2.90;;;2.13;;
62616;SDS011;62539;51.190;6.808;2024-01-07T00:57:33;2.92;;;1.98;;
62616;SDS011;62539;51.190;6.808;2024-01-07T00:59:59;2.28;;;1.98;;
62616;SDS011;62539;51.190;6.808;2024-01-07T01:02:29;3.83;;;2.40;;
62616;SDS011;62539;51.190;6.808;2024-01-07T01:04:55;4.25;;;2.42;;
62616;SDS011;62539;51.190;6.808;2024-01-07T01:07:20;3.45;;;2.55;;
62616;SDS011;62539;51.190;6.808;2024-01-07T01:09:45;4.53;;;2.20;;
62616;SDS011;62539;51.190;6.808;2024-01-07T01:12:11;3.80;;;2.30;;
62616;SDS011;62539;51.190;6.808;2024-01-07T01:14:36;2.47;;;2.15;;
62616;SDS011;62539;51.190;6.808;2024-01-07T01:17:02;2.38;;;2.05;;
62616;SDS011;62539;51.190;6.808;2024-01-07T01:19:27;3.33;;;2.30;;
62616;SDS011;62539;51.190;6.808;2024-01-07T01:21:53;2.42;;;2.20;;
62616;SDS011;62539;51.190;6.808;2024-01-07T01:24:18;2.67;;;2.05;;
62616;SDS011;62539;51.190;6.808;2024-01-07T01:26:44;5.20;;;2.15;;
62616;SDS011;62539;51.190;6.808;2024-01-07T01:29:09;2.33;;;2.10;;
62616;SDS011;62539;51.190;6.808;2024-01-07T01:31:34;2.17;;;1.80;;
62616;SDS011;62539;51.190;6.808;2024-01-07T01:34:00;2.13;;;1.92;;
62616;SDS011;62539;51.190;6.808;2024-01-07T01:36:25;2.28;;;1.88;;
62616;SDS011;62539;51.190;6.808;2024-01-07T01:38:51;2.10;;;1.90;;
62616;SDS011;62539;51.190;6.808;2024-01-07T01:41:17;3.05;;;2.05;;
62616;SDS011;62539;51.190;6.808;2024-01-07T01:43:42;2.10;;;1.90;;
62616;SDS011;62539;51.190;6.808;2024-01-07T01:46:08;2.15;;;1.95;;
62616;SDS011;62539;51.190;6.808;2024-01-07T01:48:33;2.13;;;1.92;;
62616;SDS011;62539;51.190;6.808;2024-01-07T01:51:01;2.20;;;2.00;;
62616;SDS011;62539;51.190;6.808;2024-01-07T01:53:27;2.20;;;1.95;;
62616;SDS011;62539;51.190;6.808;2024-01-07T01:55:55;2.72;;;2.22;;
62616;SDS011;62539;51.190;6.808;2024-01-07T01:58:22;2.38;;;2.05;;
62616;SDS011;62539;51.190;6.808;2024-01-07T02:00:48;4.68;;;2.08;;
62616;SDS011;62539;51.190;6.808;2024-01-07T02:03:16;2.30;;;1.92;;
62616;SDS011;62539;51.190;6.808;2024-01-07T02:05:42;3.42;;;2.08;;
62616;SDS011;62539;51.190;6.808;2024-01-07T02:08:09;2.13;;;1.92;;
62616;SDS011;62539;51.190;6.808;2024-01-07T02:10:36;2.10;;;1.90;;
62616;SDS011;62539;51.190;6.808;2024-01-07T02:13:02;2.13;;;1.92;;
62616;SDS011;62539;51.190;6.808;2024-01-07T02:15:29;2.60;;;1.90;;
62616;SDS011;62539;51.190;6.808;2024-01-07T02:17:55;2.10;;;1.90;;
62616;SDS011;62539;51.190;6.808;2024-01-07T02:20:20;2.30;;;1.98;;
62616;SDS011;62539;51.190;6.808;2024-01-07T02:22:46;2.70;;;2.10;;
62616;SDS011;62539;51.190;6.808;2024-01-07T02:25:11;3.70;;;2.13;;
62616;SDS011;62539;51.190;6.808;2024-01-07T02:27:37;2.22;;;2.03;;
62616;SDS011;62539;51.190;6.808;2024-01-07T02:30:02;2.35;;;2.10;;
62616;SDS011;62539;51.190;6.808;2024-01-07T02:32:29;2.20;;;1.85;;
62616;SDS011;62539;51.190;6.808;2024-01-07T02:34:57;1.85;;;1.73;;
62616;SDS011;62539;51.190;6.808;2024-01-07T02:37:22;3.00;;;2.00;;
62616;SDS011;62539;51.190;6.808;2024-01-07T02:39:48;2.75;;;1.73;;
62616;SDS011;62539;51.190;6.808;2024-01-07T02:42:13;2.25;;;2.05;;
62616;SDS011;62539;51.190;6.808;2024-01-07T02:44:39;2.85;;;1.85;;
62616;SDS011;62539;51.190;6.808;2024-01-07T02:47:04;2.20;;;2.00;;
62616;SDS011;62539;51.190;6.808;2024-01-07T02:49:30;2.40;;;2.10;;
62616;SDS011;62539;51.190;6.808;2024-01-07T02:51:55;2.92;;;1.90;;
62616;SDS011;62539;51.190;6.808;2024-01-07T02:54:20;2.05;;;1.85;;
62616;SDS011;62539;51.190;6.808;2024-01-07T02:56:46;3.40;;;1.75;;
62616;SDS011;62539;51.190;6.808;2024-01-07T02:59:11;2.00;;;1.88;;
62616;SDS011;62539;51.190;6.808;2024-01-07T03:01:37;3.70;;;1.98;;
62616;SDS011;62539;51.190;6.808;2024-01-07T03:04:15;2.22;;;1.98;;
62616;SDS011;62539;51.190;6.808;2024-01-07T03:06:41;1.73;;;1.63;;
62616;SDS011;62539;51.190;6.808;2024-01-07T03:09:07;2.70;;;2.17;;
62616;SDS011;62539;51.190;6.808;2024-01-07T03:11:32;2.10;;;1.90;;
62616;SDS011;62539;51.190;6.808;2024-01-07T03:13:58;2.40;;;2.10;;
62616;SDS011;62539;51.190;6.808;2024-01-07T03:16:25;2.22;;;2.03;;
62616;SDS011;62539;51.190;6.808;2024-01-07T03:18:51;2.00;;;1.70;;
62616;SDS011;62539;51.190;6.808;2024-01-07T03:21:21;2.17;;;1.90;;
62616;SDS011;62539;51.190;6.808;2024-01-07T03:23:48;2.42;;;2.00;;
62616;SDS011;62539;51.190;6.808;2024-01-07T03:26:16;2.15;;;1.95;;
62616;SDS011;62539;51.190;6.808;2024-01-07T03:28:43;2.40;;;1.83;;
62616;SDS011;62539;51.190;6.808;2024-01-07T03:31:11;2.50;;;1.90;;
62616;SDS011;62539;51.190;6.808;2024-01-07T03:33:40;2.88;;;2.00;;
62616;SDS011;62539;51.190;6.808;2024-01-07T03:36:10;3.35;;;1.92;;
62616;SDS011;62539;51.190;6.808;2024-01-07T03:38:38;2.40;;;2.15;;
62616;SDS011;62539;51.190;6.808;2024-01-07T03:41:06;2.13;;;1.80;;
62616;SDS011;62539;51.190;6.808;2024-01-07T03:43:32;2.20;;;2.00;;
62616;SDS011;62539;51.190;6.808;2024-01-07T03:45:58;1.90;;;1.70;;
62616;SDS011;62539;51.190;6.808;2024-01-07T03:48:24;3.22;;;2.33;;
62616;SDS011;62539;51.190;6.808;2024-01-07T03:50:51;1.92;;;1.73;;
62616;SDS011;62539;51.190;6.808;2024-01-07T03:53:16;3.08;;;1.73;;
62616;SDS011;62539;51.190;6.808;2024-01-07T03:55:42;2.08;;;1.88;;
62616;SDS011;62539;51.190;6.808;2024-01-07T03:58:07;2.03;;;1.90;;
62616;SDS011;62539;51.190;6.808;2024-01-07T04:00:33;3.40;;;1.98;;
62616;SDS011;62539;51.190;6.808;2024-01-07T04:02:59;2.10;;;1.90;;
62616;SDS011;62539;51.190;6.808;2024-01-07T04:05:25;2.35;;;1.88;;
62616;SDS011;62539;51.190;6.808;2024-01-07T04:07:51;1.98;;;1.77;;
62616;SDS011;62539;51.190;6.808;2024-01-07T04:10:16;2.20;;;1.75;;
62616;SDS011;62539;51.190;6.808;2024-01-07T04:12:42;2.00;;;1.60;;
62616;SDS011;62539;51.190;6.808;2024-01-07T04:15:08;2.05;;;1.80;;
62616;SDS011;62539;51.190;6.808;2024-01-07T04:17:35;1.75;;;1.65;;
62616;SDS011;62539;51.190;6.808;2024-01-07T04:20:00;1.70;;;1.60;;
62616;SDS011;62539;51.190;6.808;2024-01-07T04:22:26;1.65;;;1.55;;
62616;SDS011;62539;51.190;6.808;2024-01-07T04:24:51;2.03;;;1.63;;
62616;SDS011;62539;51.190;6.808;2024-01-07T04:27:16;2.42;;;2.22;;
62616;SDS011;62539;51.190;6.808;2024-01-07T04:29:42;2.25;;;2.05;;
62616;SDS011;62539;51.190;6.808;2024-01-07T04:32:07;1.92;;;1.75;;
62616;SDS011;62539;51.190;6.808;2024-01-07T04:34:33;2.00;;;1.80;;
62616;SDS011;62539;51.190;6.808;2024-01-07T04:36:58;2.20;;;2.00;;
62616;SDS011;62539;51.190;6.808;2024-01-07T04:39:23;2.35;;;2.03;;
62616;SDS011;62539;51.190;6.808;2024-01-07T04:41:49;4.40;;;1.73;;
62616;SDS011;62539;51.190;6.808;2024-01-07T04:44:14;2.20;;;2.00;;
62616;SDS011;62539;51.190;6.808;2024-01-07T04:46:40;1.90;;;1.70;;
62616;SDS011;62539;51.190;6.808;2024-01-07T04:49:05;2.22;;;1.73;;
62616;SDS011;62539;51.190;6.808;2024-01-07T04:51:32;2.20;;;1.95;;
62616;SDS011;62539;51.190;6.808;2024-01-07T04:53:58;2.35;;;1.95;;
62616;SDS011;62539;51.190;6.808;2024-01-07T04:56:24;1.95;;;1.75;;
62616;SDS011;62539;51.190;6.808;2024-01-07T04:58:49;3.10;;;1.90;;
62616;SDS011;62539;51.190;6.808;2024-01-07T05:01:15;2.00;;;1.80;;
62616;SDS011;62539;51.190;6.808;2024-01-07T05:03:41;3.20;;;2.00;;
62616;SDS011;62539;51.190;6.808;2024-01-07T05:06:09;2.03;;;1.75;;
62616;SDS011;62539;51.190;6.808;2024-01-07T05:08:39;2.70;;;1.90;;
62616;SDS011;62539;51.190;6.808;2024-01-07T05:11:06;2.17;;;1.58;;
62616;SDS011;62539;51.190;6.808;2024-01-07T05:13:33;1.80;;;1.70;;
62616;SDS011;62539;51.190;6.808;2024-01-07T05:16:00;2.17;;;1.70;;
62616;SDS011;62539;51.190;6.808;2024-01-07T05:18:25;1.77;;;1.38;;
62616;SDS011;62539;51.190;6.808;2024-01-07T05:20:51;1.98;;;1.63;;
62616;SDS011;62539;51.190;6.808;2024-01-07T05:23:17;2.25;;;1.40;;
62616;SDS011;62539;51.190;6.808;2024-01-07T05:25:42;1.58;;;1.45;;
62616;SDS011;62539;51.190;6.808;2024-01-07T05:28:09;1.55;;;1.45;;
62616;SDS011;62539;51.190;6.808;2024-01-07T05:30:35;1.90;;;1.50;;
62616;SDS011;62539;51.190;6.808;2024-01-07T05:33:01;1.90;;;1.70;;
62616;SDS011;62539;51.190;6.808;2024-01-07T05:35:27;1.48;;;1.23;;
62616;SDS011;62539;51.190;6.808;2024-01-07T05:37:52;1.92;;;1.60;;
62616;SDS011;62539;51.190;6.808;2024-01-07T05:40:17;2.08;;;1.33;;
62616;SDS011;62539;51.190;6.808;2024-01-07T05:42:43;1.67;;;1.42;;
62616;SDS011;62539;51.190;6.808;2024-01-07T05:45:08;1.73;;;1.40;;
62616;SDS011;62539;51.190;6.808;2024-01-07T05:47:34;1.67;;;1.58;;
62616;SDS011;62539;51.190;6.808;2024-01-07T05:50:00;1.55;;;1.42;;
62616;SDS011;62539;51.190;6.808;2024-01-07T05:52:25;1.70;;;1.40;;
62616;SDS011;62539;51.190;6.808;2024-01-07T05:54:51;1.60;;;1.10;;
62616;SDS011;62539;51.190;6.808;2024-01-07T05:57:17;2.88;;;1.25;;
62616;SDS011;62539;51.190;6.808;2024-01-07T05:59:46;1.50;;;1.40;;
62616;SDS011;62539;51.190;6.808;2024-01-07T06:02:11;1.45;;;1.10;;
62616;SDS011;62539;51.190;6.808;2024-01-07T06:04:39;1.75;;;1.30;;
62616;SDS011;62539;51.190;6.808;2024-01-07T06:07:06;1.48;;;1.38;;
62616;SDS011;62539;51.190;6.808;2024-01-07T06:09:31;1.83;;;1.23;;
62616;SDS011;62539;51.190;6.808;2024-01-07T06:11:56;1.40;;;1.30;;
62616;SDS011;62539;51.190;6.808;2024-01-07T06:14:22;1.33;;;1.20;;
62616;SDS011;62539;51.190;6.808;2024-01-07T06:16:48;1.25;;;1.10;;
62616;SDS011;62539;51.190;6.808;2024-01-07T06:19:13;1.40;;;1.30;;
62616;SDS011;62539;51.190;6.808;2024-01-07T06:21:41;1.67;;;1.30;;
62616;SDS011;62539;51.190;6.808;2024-01-07T06:24:09;1.38;;;1.17;;
62616;SDS011;62539;51.190;6.808;2024-01-07T06:26:35;3.63;;;1.58;;
62616;SDS011;62539;51.190;6.808;2024-01-07T06:29:01;1.30;;;1.20;;
62616;SDS011;62539;51.190;6.808;2024-01-07T06:31:26;1.38;;;1.10;;
62616;SDS011;62539;51.190;6.808;2024-01-07T06:33:52;2.47;;;1.40;;
62616;SDS011;62539;51.190;6.808;2024-01-07T06:36:18;1.95;;;1.42;;
62616;SDS011;62539;51.190;6.808;2024-01-07T06:38:43;2.88;;;1.20;;
62616;SDS011;62539;51.190;6.808;2024-01-07T06:41:12;1.38;;;1.15;;
62616;SDS011;62539;51.190;6.808;2024-01-07T06:43:37;2.03;;;1.35;;
62616;SDS011;62539;51.190;6.808;2024-01-07T06:46:03;1.63;;;1.50;;
62616;SDS011;62539;51.190;6.808;2024-01-07T06:48:29;1.60;;;1.30;;
62616;SDS011;62539;51.190;6.808;2024-01-07T06:50:55;1.58;;;1.40;;
62616;SDS011;62539;51.190;6.808;2024-01-07T06:53:20;1.40;;;1.30;;
62616;SDS011;62539;51.190;6.808;2024-01-07T06:55:46;1.75;;;1.52;;
62616;SDS011;62539;51.190;6.808;2024-01-07T06:58:12;2.20;;;1.50;;
62616;SDS011;62539;51.190;6.808;2024-01-07T07:00:37;1.90;;;1.50;;
62616;SDS011;62539;51.190;6.808;2024-01-07T07:03:03;2.95;;;1.58;;
62616;SDS011;62539;51.190;6.808;2024-01-07T07:05:29;1.75;;;1.50;;
62616;SDS011;62539;51.190;6.808;2024-01-07T07:07:55;3.72;;;1.50;;
62616;SDS011;62539;51.190;6.808;2024-01-07T07:10:20;3.08;;;1.50;;
62616;SDS011;62539;51.190;6.808;2024-01-07T07:12:45;1.88;;;1.25;;
62616;SDS011;62539;51.190;6.808;2024-01-07T07:15:11;1.52;;;1.33;;
62616;SDS011;62539;51.190;6.808;2024-01-07T07:17:38;1.60;;;1.50;;
62616;SDS011;62539;51.190;6.808;2024-01-07T07:20:04;2.13;;;1.30;;
62616;SDS011;62539;51.190;6.808;2024-01-07T07:22:32;1.58;;;1.42;;
62616;SDS011;62539;51.190;6.808;2024-01-07T07:24:57;2.20;;;1.52;;
62616;SDS011;62539;51.190;6.808;2024-01-07T07:27:23;2.45;;;1.55;;
62616;SDS011;62539;51.190;6.808;2024-01-07T07:29:49;5.43;;;1.35;;
62616;SDS011;62539;51.190;6.808;2024-01-07T07:32:14;1.70;;;1.50;;
62616;SDS011;62539;51.190;6.808;2024-01-07T07:34:40;5.95;;;1.50;;
62616;SDS011;62539;51.190;6.808;2024-01-07T07:37:05;2.72;;;1.67;;
62616;SDS011;62539;51.190;6.808;2024-01-07T07:39:31;1.92;;;1.60;;
62616;SDS011;62539;51.190;6.808;2024-01-07T07:41:56;1.58;;;1.48;;
62616;SDS011;62539;51.190;6.808;2024-01-07T07:44:21;1.58;;;1.30;;
62616;SDS011;62539;51.190;6.808;2024-01-07T07:46:47;3.83;;;1.55;;
62616;SDS011;62539;51.190;6.808;2024-01-07T07:49:12;1.98;;;1.58;;
62616;SDS011;62539;51.190;6.808;2024-01-07T07:51:38;1.83;;;1.60;;
62616;SDS011;62539;51.190;6.808;2024-01-07T07:54:04;1.90;;;1.67;;
62616;SDS011;62539;51.190;6.808;2024-01-07T07:56:30;1.65;;;1.30;;
62616;SDS011;62539;51.190;6.808;2024-01-07T07:58:55;2.47;;;1.50;;
62616;SDS011;62539;51.190;6.808;2024-01-07T08:01:20;2.22;;;1.52;;
62616;SDS011;62539;51.190;6.808;2024-01-07T08:03:46;1.73;;;1.48;;
62616;SDS011;62539;51.190;6.808;2024-01-07T08:06:11;4.38;;;1.85;;
62616;SDS011;62539;51.190;6.808;2024-01-07T08:08:37;2.00;;;1.60;;
62616;SDS011;62539;51.190;6.808;2024-01-07T08:11:02;5.20;;;1.67;;
62616;SDS011;62539;51.190;6.808;2024-01-07T08:13:31;4.80;;;1.70;;
62616;SDS011;62539;51.190;6.808;2024-01-07T08:15:56;11.18;;;1.52;;
62616;SDS011;62539;51.190;6.808;2024-01-07T08:18:21;3.42;;;1.88;;
62616;SDS011;62539;51.190;6.808;2024-01-07T08:20:47;2.90;;;1.90;;
62616;SDS011;62539;51.190;6.808;2024-01-07T08:23:12;2.47;;;1.60;;
62616;SDS011;62539;51.190;6.808;2024-01-07T08:25:38;2.38;;;1.40;;
62616;SDS011;62539;51.190;6.808;2024-01-07T08:28:03;5.13;;;1.60;;
62616;SDS011;62539;51.190;6.808;2024-01-07T08:30:28;1.92;;;1.60;;
62616;SDS011;62539;51.190;6.808;2024-01-07T08:32:54;2.28;;;1.50;;
62616;SDS011;62539;51.190;6.808;2024-01-07T08:35:19;3.08;;;1.95;;
62616;SDS011;62539;51.190;6.808;2024-01-07T08:37:45;2.53;;;1.58;;
62616;SDS011;62539;51.190;6.808;2024-01-07T08:40:11;5.53;;;1.80;;
62616;SDS011;62539;51.190;6.808;2024-01-07T08:42:38;2.78;;;1.63;;
62616;SDS011;62539;51.190;6.808;2024-01-07T08:45:04;2.63;;;1.60;;
62616;SDS011;62539;51.190;6.808;2024-01-07T08:47:30;3.08;;;1.73;;
62616;SDS011;62539;51.190;6.808;2024-01-07T08:49:56;1.83;;;1.40;;
62616;SDS011;62539;51.190;6.808;2024-01-07T08:52:22;2.55;;;1.55;;
62616;SDS011;62539;51.190;6.808;2024-01-07T08:54:49;3.25;;;1.70;;
62616;SDS011;62539;51.190;6.808;2024-01-07T08:57:14;2.78;;;1.48;;
62616;SDS011;62539;51.190;6.808;2024-01-07T08:59:40;2.65;;;1.85;;
62616;SDS011;62539;51.190;6.808;2024-01-07T09:02:05;3.15;;;1.55;;
62616;SDS011;62539;51.190;6.808;2024-01-07T09:04:31;4.30;;;1.70;;
62616;SDS011;62539;51.190;6.808;2024-01-07T09:06:58;3.88;;;1.88;;
62616;SDS011;62539;51.190;6.808;2024-01-07T09:09:24;2.55;;;1.60;;
62616;SDS011;62539;51.190;6.808;2024-01-07T09:11:49;4.40;;;1.50;;
62616;SDS011;62539;51.190;6.808;2024-01-07T09:14:15;3.08;;;1.88;;
62616;SDS011;62539;51.190;6.808;2024-01-07T09:16:40;5.13;;;1.60;;
62616;SDS011;62539;51.190;6.808;2024-01-07T09:19:06;4.00;;;1.50;;
62616;SDS011;62539;51.190;6.808;2024-01-07T09:21:31;3.55;;;1.65;;
62616;SDS011;62539;51.190;6.808;2024-01-07T09:23:56;2.38;;;1.48;;
62616;SDS011;62539;51.190;6.808;2024-01-07T09:26:22;2.78;;;1.60;;
62616;SDS011;62539;51.190;6.808;2024-01-07T09:28:47;2.63;;;1.65;;
62616;SDS011;62539;51.190;6.808;2024-01-07T09:31:13;1.98;;;1.52;;
62616;SDS011;62539;51.190;6.808;2024-01-07T09:33:38;2.92;;;1.60;;
62616;SDS011;62539;51.190;6.808;2024-01-07T09:36:04;2.58;;;1.58;;
62616;SDS011;62539;51.190;6.808;2024-01-07T09:38:31;1.90;;;1.50;;
62616;SDS011;62539;51.190;6.808;2024-01-07T09:40:57;1.92;;;1.60;;
62616;SDS011;62539;51.190;6.808;2024-01-07T09:43:23;1.90;;;1.58;;
62616;SDS011;62539;51.190;6.808;2024-01-07T09:45:48;3.70;;;1.63;;
62616;SDS011;62539;51.190;6.808;2024-01-07T09:48:17;2.17;;;1.60;;
62616;SDS011;62539;51.190;6.808;2024-01-07T09:50:42;2.88;;;1.63;;
62616;SDS011;62539;51.190;6.808;2024-01-07T09:53:08;2.55;;;1.70;;
62616;SDS011;62539;51.190;6.808;2024-01-07T09:55:47;5.07;;;1.63;;
62616;SDS011;62539;51.190;6.808;2024-01-07T09:58:48;6.72;;;1.50;;
62616;SDS011;62539;51.190;6.808;2024-01-07T10:01:15;2.28;;;1.70;;
62616;SDS011;62539;51.190;6.808;2024-01-07T10:03:44;1.93;;;1.47;;
62616;SDS011;62539;51.190;6.808;2024-01-07T10:06:10;3.53;;;1.58;;
62616;SDS011;62539;51.190;6.808;2024-01-07T10:08:37;2.05;;;1.55;;
62616;SDS011;62539;51.190;6.808;2024-01-07T10:11:03;2.00;;;1.58;;
62616;SDS011;62539;51.190;6.808;2024-01-07T10:13:29;2.53;;;1.58;;
62616;SDS011;62539;51.190;6.808;2024-01-07T10:15:56;2.20;;;1.50;;
62616;SDS011;62539;51.190;6.808;2024-01-07T10:18:22;2.83;;;1.70;;
62616;SDS011;62539;51.190;6.808;2024-01-07T10:20:47;2.58;;;1.58;;
62616;SDS011;62539;51.190;6.808;2024-01-07T10:23:18;4.15;;;1.67;;
62616;SDS011;62539;51.190;6.808;2024-01-07T10:25:44;2.17;;;1.38;;
62616;SDS011;62539;51.190;6.808;2024-01-07T10:28:10;3.83;;;1.65;;
62616;SDS011;62539;51.190;6.808;2024-01-07T10:30:38;6.28;;;1.52;;
62616;SDS011;62539;51.190;6.808;2024-01-07T10:33:05;3.25;;;1.77;;
62616;SDS011;62539;51.190;6.808;2024-01-07T10:35:33;3.00;;;1.70;;
62616;SDS011;62539;51.190;6.808;2024-01-07T10:38:01;6.18;;;1.80;;
62616;SDS011;62539;51.190;6.808;2024-01-07T10:40:27;6.40;;;2.00;;
62616;SDS011;62539;51.190;6.808;2024-01-07T10:42:55;3.85;;;2.00;;
62616;SDS011;62539;51.190;6.808;2024-01-07T10:45:22;5.90;;;2.03;;
62616;SDS011;62539;51.190;6.808;2024-01-07T10:47:48;3.88;;;2.08;;
62616;SDS011;62539;51.190;6.808;2024-01-07T10:50:16;4.82;;;2.08;;
62616;SDS011;62539;51.190;6.808;2024-01-07T10:52:42;11.02;;;1.67;;
62616;SDS011;62539;51.190;6.808;2024-01-07T10:55:18;2.72;;;1.85;;
62616;SDS011;62539;51.190;6.808;2024-01-07T10:57:44;2.00;;;1.67;;
62616;SDS011;62539;51.190;6.808;2024-01-07T11:00:18;9.35;;;1.88;;
62616;SDS011;62539;51.190;6.808;2024-01-07T11:02:47;2.95;;;1.80;;
62616;SDS011;62539;51.190;6.808;2024-01-07T11:05:52;3.40;;;1.80;;
62616;SDS011;62539;51.190;6.808;2024-01-07T11:08:32;3.60;;;1.90;;
62616;SDS011;62539;51.190;6.808;2024-01-07T11:11:06;3.35;;;1.98;;
62616;SDS011;62539;51.190;6.808;2024-01-07T11:13:40;4.07;;;1.73;;
62616;SDS011;62539;51.190;6.808;2024-01-07T11:16:07;10.07;;;2.33;;
62616;SDS011;62539;51.190;6.808;2024-01-07T11:18:39;3.15;;;1.58;;
62616;SDS011;62539;51.190;6.808;2024-01-07T11:21:11;4.45;;;1.80;;
62616;SDS011;62539;51.190;6.808;2024-01-07T11:23:46;5.75;;;1.55;;
62616;SDS011;62539;51.190;6.808;2024-01-07T11:26:12;2.88;;;1.63;;
62616;SDS011;62539;51.190;6.808;2024-01-07T11:29:11;5.43;;;1.60;;
62616;SDS011;62539;51.190;6.808;2024-01-07T11:34:04;3.60;;;1.90;;
62616;SDS011;62539;51.190;6.808;2024-01-07T11:36:29;4.07;;;1.77;;
62616;SDS011;62539;51.190;6.808;2024-01-07T11:38:55;2.67;;;1.65;;
62616;SDS011;62539;51.190;6.808;2024-01-07T11:41:20;5.07;;;1.63;;
62616;SDS011;62539;51.190;6.808;2024-01-07T11:43:53;6.78;;;3.17;;
62616;SDS011;62539;51.190;6.808;2024-01-07T11:46:24;21.10;;;5.45;;
62616;SDS011;62539;51.190;6.808;2024-01-07T11:48:55;25.25;;;5.72;;
62616;SDS011;62539;51.190;6.808;2024-01-07T11:51:25;19.35;;;6.25;;
62616;SDS011;62539;51.190;6.808;2024-01-07T11:53:55;31.83;;;7.47;;
62616;SDS011;62539;51.190;6.808;2024-01-07T11:56:23;23.95;;;6.70;;
62616;SDS011;62539;51.190;6.808;2024-01-07T11:58:49;21.15;;;7.00;;
62616;SDS011;62539;51.190;6.808;2024-01-07T12:01:15;20.45;;;6.80;;
62616;SDS011;62539;51.190;6.808;2024-01-07T12:03:43;20.60;;;6.82;;
62616;SDS011;62539;51.190;6.808;2024-01-07T12:06:09;19.90;;;6.90;;
62616;SDS011;62539;51.190;6.808;2024-01-07T12:08:38;27.52;;;7.32;;
62616;SDS011;62539;51.190;6.808;2024-01-07T12:11:13;15.70;;;6.80;;
62616;SDS011;62539;51.190;6.808;2024-01-07T12:13:40;14.02;;;6.75;;
62616;SDS011;62539;51.190;6.808;2024-01-07T12:16:07;16.05;;;6.50;;
62616;SDS011;62539;51.190;6.808;2024-01-07T12:18:38;14.27;;;6.15;;
62616;SDS011;62539;51.190;6.808;2024-01-07T12:21:04;16.63;;;6.38;;
62616;SDS011;62539;51.190;6.808;2024-01-07T12:23:33;14.75;;;5.88;;
62616;SDS011;62539;51.190;6.808;2024-01-07T12:26:10;18.48;;;6.22;;
62616;SDS011;62539;51.190;6.808;2024-01-07T12:28:36;17.60;;;6.35;;
62616;SDS011;62539;51.190;6.808;2024-01-07T12:31:03;19.02;;;6.72;;
62616;SDS011;62539;51.190;6.808;2024-01-07T12:33:30;20.00;;;7.60;;
62616;SDS011;62539;51.190;6.808;2024-01-07T12:35:57;17.63;;;6.95;;
62616;SDS011;62539;51.190;6.808;2024-01-07T12:38:26;22.52;;;8.13;;
62616;SDS011;62539;51.190;6.808;2024-01-07T12:40:52;20.08;;;7.43;;
62616;SDS011;62539;51.190;6.808;2024-01-07T12:43:19;12.25;;;6.25;;
62616;SDS011;62539;51.190;6.808;2024-01-07T12:45:45;13.85;;;6.63;;
62616;SDS011;62539;51.190;6.808;2024-01-07T12:48:11;13.15;;;6.50;;
62616;SDS011;62539;51.190;6.808;2024-01-07T12:50:37;20.50;;;7.00;;
62616;SDS011;62539;51.190;6.808;2024-01-07T12:53:02;14.85;;;6.70;;
62616;SDS011;62539;51.190;6.808;2024-01-07T12:55:28;11.30;;;5.72;;
62616;SDS011;62539;51.190;6.808;2024-01-07T12:57:54;17.42;;;6.10;;
62616;SDS011;62539;51.190;6.808;2024-01-07T13:00:20;15.50;;;6.13;;
62616;SDS011;62539;51.190;6.808;2024-01-07T13:02:46;20.85;;;6.10;;
62616;SDS011;62539;51.190;6.808;2024-01-07T13:05:12;11.93;;;6.18;;
62616;SDS011;62539;51.190;6.808;2024-01-07T13:07:38;13.73;;;6.13;;
62616;SDS011;62539;51.190;6.808;2024-01-07T13:10:04;17.50;;;6.85;;
62616;SDS011;62539;51.190;6.808;2024-01-07T13:12:30;13.95;;;5.70;;
62616;SDS011;62539;51.190;6.808;2024-01-07T13:14:55;14.85;;;5.80;;
62616;SDS011;62539;51.190;6.808;2024-01-07T13:17:23;7.40;;;3.85;;
62616;SDS011;62539;51.190;6.808;2024-01-07T13:19:49;6.55;;;2.97;;
62616;SDS011;62539;51.190;6.808;2024-01-07T13:22:14;4.10;;;2.97;;
62616;SDS011;62539;51.190;6.808;2024-01-07T13:24:40;5.47;;;2.50;;
62616;SDS011;62539;51.190;6.808;2024-01-07T13:27:06;3.90;;;2.70;;
62616;SDS011;62539;51.190;6.808;2024-01-07T13:29:33;5.65;;;2.47;;
62616;SDS011;62539;51.190;6.808;2024-01-07T13:32:00;4.68;;;2.13;;
62616;SDS011;62539;51.190;6.808;2024-01-07T13:34:25;2.75;;;2.10;;
62616;SDS011;62539;51.190;6.808;2024-01-07T13:36:51;4.05;;;2.38;;
62616;SDS011;62539;51.190;6.808;2024-01-07T13:39:17;3.05;;;2.03;;
62616;SDS011;62539;51.190;6.808;2024-01-07T13:41:45;5.57;;;2.25;;
62616;SDS011;62539;51.190;6.808;2024-01-07T13:44:11;2.97;;;2.03;;
62616;SDS011;62539;51.190;6.808;2024-01-07T13:46:43;3.22;;;2.00;;
62616;SDS011;62539;51.190;6.808;2024-01-07T13:49:17;2.67;;;1.92;;
62616;SDS011;62539;51.190;6.808;2024-01-07T13:51:43;3.95;;;2.20;;
62616;SDS011;62539;51.190;6.808;2024-01-07T13:54:09;3.50;;;2.28;;
62616;SDS011;62539;51.190;6.808;2024-01-07T13:56:38;3.15;;;1.90;;
62616;SDS011;62539;51.190;6.808;2024-01-07T13:59:07;2.78;;;2.08;;
62616;SDS011;62539;51.190;6.808;2024-01-07T14:01:33;3.90;;;1.83;;
62616;SDS011;62539;51.190;6.808;2024-01-07T14:03:59;5.05;;;1.73;;
62616;SDS011;62539;51.190;6.808;2024-01-07T14:06:24;2.47;;;1.77;;
62616;SDS011;62539;51.190;6.808;2024-01-07T14:08:50;2.58;;;1.77;;
62616;SDS011;62539;51.190;6.808;2024-01-07T14:11:17;8.55;;;1.92;;
62616;SDS011;62539;51.190;6.808;2024-01-07T14:13:43;3.38;;;1.67;;
62616;SDS011;62539;51.190;6.808;2024-01-07T14:16:10;2.83;;;1.52;;
62616;SDS011;62539;51.190;6.808;2024-01-07T14:18:36;4.55;;;1.90;;
62616;SDS011;62539;51.190;6.808;2024-01-07T14:21:02;8.55;;;1.90;;
62616;SDS011;62539;51.190;6.808;2024-01-07T14:23:27;2.58;;;1.73;;
62616;SDS011;62539;51.190;6.808;2024-01-07T14:25:54;5.15;;;2.25;;
62616;SDS011;62539;51.190;6.808;2024-01-07T14:28:21;2.30;;;1.70;;
62616;SDS011;62539;51.190;6.808;2024-01-07T14:30:47;8.63;;;2.20;;
62616;SDS011;62539;51.190;6.808;2024-01-07T14:33:13;2.63;;;1.67;;
62616;SDS011;62539;51.190;6.808;2024-01-07T14:35:38;3.10;;;1.85;;
62616;SDS011;62539;51.190;6.808;2024-01-07T14:38:04;7.43;;;1.95;;
62616;SDS011;62539;51.190;6.808;2024-01-07T14:40:29;7.82;;;1.88;;
62616;SDS011;62539;51.190;6.808;2024-01-07T14:42:55;8.02;;;1.90;;
62616;SDS011;62539;51.190;6.808;2024-01-07T14:45:23;2.80;;;1.75;;